ROMMA est une association bénévole à but non lucratif. Votre soutien est indispensable : ADHERER à ROMMA ou FAIRE un DON

St-Etienne-du-Bois - (01, Ain)

La Bresse (243 m)   Longitude: 5° 16' 47'' E   Latitude: 46° 17' 46'' N Station partenaire n°17
 

Détail journalier du     <<     >>

Température Precipitation Humidité Pression Vent Dir Rafale Dir. rafale Ensol.
Heure (°C) (mm) (%) (hPa) (km/h) (km/h) (min)
01:00 3.209510051SE6SE0
02:00 4.109310051SE10SE0
03:00 5.40.29110057SO24SSO0
04:00 5.00.49210055SSE21S0
05:00 5.509010057S24SSO0
06:00 5.808910069SSO24S0
07:00 5.60.29110075S19SSO0
08:00 5.30.29310071S6S0
09:00 5.4095100802S10
10:00 6.6092100800---5
11:00 8.308510094SSO15SSO40
12:00 8.908210095SO15SSO25
13:00 9.107610091SSO6SSO5
14:00 10.006910091SSO6SSO20
15:00 9.207810103NE8ENE0
16:00 8.308210103N10NNO0
17:00 7.708610112N10NNO0
18:00 5.8090101100---0
19:00 4.5092101206NNO0
20:00 3.4094101300---0
21:00 2.8095101300---0
22:00 1.8094101300---0
23:00 1.7096101200---0
minuit 1.3096101300---0

Graphique du 10-11-2019

 

Serveur OMMA